sensor_id;sensor_type;location;lat;lon;timestamp;temperature;humidity
67182;DHT22;54114;53.524;49.396;2023-03-11T00:00:27;1.80;67.70
67182;DHT22;54114;53.524;49.396;2023-03-11T00:02:55;1.80;68.40
67182;DHT22;54114;53.524;49.396;2023-03-11T00:05:25;1.80;67.80
67182;DHT22;54114;53.524;49.396;2023-03-11T00:07:54;1.80;67.80
67182;DHT22;54114;53.524;49.396;2023-03-11T00:12:59;1.80;67.70
67182;DHT22;54114;53.524;49.396;2023-03-11T00:15:28;1.80;67.70
67182;DHT22;54114;53.524;49.396;2023-03-11T00:17:55;1.80;67.70
67182;DHT22;54114;53.524;49.396;2023-03-11T00:20:36;1.90;67.80
67182;DHT22;54114;53.524;49.396;2023-03-11T00:23:06;1.80;67.80
67182;DHT22;54114;53.524;49.396;2023-03-11T00:25:35;1.90;67.80
67182;DHT22;54114;53.524;49.396;2023-03-11T00:28:03;1.80;67.80
67182;DHT22;54114;53.524;49.396;2023-03-11T00:30:32;1.80;67.80
67182;DHT22;54114;53.524;49.396;2023-03-11T00:32:59;1.90;68.00
67182;DHT22;54114;53.524;49.396;2023-03-11T00:35:29;1.90;68.00
67182;DHT22;54114;53.524;49.396;2023-03-11T00:38:02;1.90;67.80
67182;DHT22;54114;53.524;49.396;2023-03-11T00:40:32;1.90;67.70
67182;DHT22;54114;53.524;49.396;2023-03-11T00:42:59;1.90;67.80
67182;DHT22;54114;53.524;49.396;2023-03-11T00:45:27;1.90;67.70
67182;DHT22;54114;53.524;49.396;2023-03-11T00:47:54;1.90;67.60
67182;DHT22;54114;53.524;49.396;2023-03-11T00:50:25;1.80;67.60
67182;DHT22;54114;53.524;49.396;2023-03-11T00:52:53;1.80;67.70
67182;DHT22;54114;53.524;49.396;2023-03-11T00:55:22;1.80;67.60
67182;DHT22;54114;53.524;49.396;2023-03-11T00:57:56;1.80;67.70
67182;DHT22;54114;53.524;49.396;2023-03-11T01:00:26;1.80;67.60
67182;DHT22;54114;53.524;49.396;2023-03-11T01:02:55;1.80;67.60
67182;DHT22;54114;53.524;49.396;2023-03-11T01:05:25;1.80;67.70
67182;DHT22;54114;53.524;49.396;2023-03-11T01:07:53;1.80;67.60
67182;DHT22;54114;53.524;49.396;2023-03-11T01:10:19;1.80;67.60
67182;DHT22;54114;53.524;49.396;2023-03-11T01:12:47;1.80;67.70
67182;DHT22;54114;53.524;49.396;2023-03-11T01:15:27;1.80;67.80
67182;DHT22;54114;53.524;49.396;2023-03-11T01:17:55;1.80;68.50
67182;DHT22;54114;53.524;49.396;2023-03-11T01:20:22;1.90;67.90
67182;DHT22;54114;53.524;49.396;2023-03-11T01:22:49;1.90;67.90
67182;DHT22;54114;53.524;49.396;2023-03-11T01:25:18;2.00;67.80
67182;DHT22;54114;53.524;49.396;2023-03-11T01:27:45;2.00;67.60
67182;DHT22;54114;53.524;49.396;2023-03-11T01:30:21;2.00;67.30
67182;DHT22;54114;53.524;49.396;2023-03-11T01:32:51;2.00;67.20
67182;DHT22;54114;53.524;49.396;2023-03-11T01:35:20;2.00;67.10
67182;DHT22;54114;53.524;49.396;2023-03-11T01:37:48;2.00;67.20
67182;DHT22;54114;53.524;49.396;2023-03-11T01:40:37;2.00;67.30
67182;DHT22;54114;53.524;49.396;2023-03-11T01:46:24;1.90;67.40
67182;DHT22;54114;53.524;49.396;2023-03-11T01:48:54;1.90;67.30
67182;DHT22;54114;53.524;49.396;2023-03-11T01:51:32;1.90;67.30
67182;DHT22;54114;53.524;49.396;2023-03-11T01:54:06;1.90;67.30
67182;DHT22;54114;53.524;49.396;2023-03-11T01:56:38;1.90;67.40
67182;DHT22;54114;53.524;49.396;2023-03-11T01:59:08;1.80;67.40
67182;DHT22;54114;53.524;49.396;2023-03-11T02:02:29;1.80;67.50
67182;DHT22;54114;53.524;49.396;2023-03-11T02:04:49;1.80;67.40
67182;DHT22;54114;53.524;49.396;2023-03-11T02:07:16;1.80;67.30
67182;DHT22;54114;53.524;49.396;2023-03-11T02:09:43;1.80;67.40
67182;DHT22;54114;53.524;49.396;2023-03-11T02:12:13;1.70;67.40
67182;DHT22;54114;53.524;49.396;2023-03-11T02:14:42;1.70;67.40
67182;DHT22;54114;53.524;49.396;2023-03-11T02:17:11;1.70;67.50
67182;DHT22;54114;53.524;49.396;2023-03-11T02:22:39;1.60;67.30
67182;DHT22;54114;53.524;49.396;2023-03-11T02:25:38;1.60;67.40
67182;DHT22;54114;53.524;49.396;2023-03-11T02:28:11;1.50;67.50
67182;DHT22;54114;53.524;49.396;2023-03-11T02:30:42;1.40;67.50
67182;DHT22;54114;53.524;49.396;2023-03-11T02:33:10;1.40;67.60
67182;DHT22;54114;53.524;49.396;2023-03-11T02:35:37;1.40;67.70
67182;DHT22;54114;53.524;49.396;2023-03-11T02:38:04;1.40;67.80
67182;DHT22;54114;53.524;49.396;2023-03-11T02:41:04;1.40;67.90
67182;DHT22;54114;53.524;49.396;2023-03-11T02:43:39;1.40;67.90
67182;DHT22;54114;53.524;49.396;2023-03-11T02:46:08;1.30;67.90
67182;DHT22;54114;53.524;49.396;2023-03-11T02:48:37;1.30;67.90
67182;DHT22;54114;53.524;49.396;2023-03-11T02:51:04;1.30;68.00
67182;DHT22;54114;53.524;49.396;2023-03-11T02:53:55;1.30;68.10
67182;DHT22;54114;53.524;49.396;2023-03-11T02:56:21;1.30;68.80
67182;DHT22;54114;53.524;49.396;2023-03-11T02:58:48;1.30;68.10
67182;DHT22;54114;53.524;49.396;2023-03-11T03:01:15;1.30;68.10
67182;DHT22;54114;53.524;49.396;2023-03-11T03:03:42;1.30;68.10
67182;DHT22;54114;53.524;49.396;2023-03-11T03:06:08;1.30;68.00
67182;DHT22;54114;53.524;49.396;2023-03-11T03:08:35;1.40;68.00
67182;DHT22;54114;53.524;49.396;2023-03-11T03:11:02;1.40;68.00
67182;DHT22;54114;53.524;49.396;2023-03-11T03:13:29;1.40;68.00
67182;DHT22;54114;53.524;49.396;2023-03-11T03:15:57;1.40;68.00
67182;DHT22;54114;53.524;49.396;2023-03-11T03:18:24;1.40;67.90
67182;DHT22;54114;53.524;49.396;2023-03-11T03:20:52;1.40;68.60
67182;DHT22;54114;53.524;49.396;2023-03-11T03:23:19;1.40;67.90
67182;DHT22;54114;53.524;49.396;2023-03-11T03:25:46;1.50;67.90
67182;DHT22;54114;53.524;49.396;2023-03-11T03:28:13;1.50;67.70
67182;DHT22;54114;53.524;49.396;2023-03-11T03:30:40;1.50;67.70
67182;DHT22;54114;53.524;49.396;2023-03-11T03:33:07;1.50;67.70
67182;DHT22;54114;53.524;49.396;2023-03-11T03:35:34;1.50;67.70
67182;DHT22;54114;53.524;49.396;2023-03-11T03:38:01;1.60;67.80
67182;DHT22;54114;53.524;49.396;2023-03-11T03:40:28;1.60;67.80
67182;DHT22;54114;53.524;49.396;2023-03-11T03:42:55;1.70;67.70
67182;DHT22;54114;53.524;49.396;2023-03-11T03:45:22;1.70;67.60
67182;DHT22;54114;53.524;49.396;2023-03-11T03:47:48;1.80;67.50
67182;DHT22;54114;53.524;49.396;2023-03-11T03:50:15;1.80;67.50
67182;DHT22;54114;53.524;49.396;2023-03-11T03:52:41;1.80;67.40
67182;DHT22;54114;53.524;49.396;2023-03-11T03:55:08;1.90;67.40
67182;DHT22;54114;53.524;49.396;2023-03-11T03:57:35;1.90;67.20
67182;DHT22;54114;53.524;49.396;2023-03-11T04:00:03;1.90;67.20
67182;DHT22;54114;53.524;49.396;2023-03-11T04:02:30;2.00;67.30
67182;DHT22;54114;53.524;49.396;2023-03-11T04:04:57;2.00;67.10
67182;DHT22;54114;53.524;49.396;2023-03-11T04:07:23;2.00;67.10
67182;DHT22;54114;53.524;49.396;2023-03-11T04:09:50;2.10;67.20
67182;DHT22;54114;53.524;49.396;2023-03-11T04:12:16;2.20;67.20
67182;DHT22;54114;53.524;49.396;2023-03-11T04:14:43;2.20;67.20
67182;DHT22;54114;53.524;49.396;2023-03-11T04:17:11;2.40;67.20
67182;DHT22;54114;53.524;49.396;2023-03-11T04:19:39;2.40;67.20
67182;DHT22;54114;53.524;49.396;2023-03-11T04:22:07;2.60;67.30
67182;DHT22;54114;53.524;49.396;2023-03-11T04:24:34;2.70;67.00
67182;DHT22;54114;53.524;49.396;2023-03-11T04:27:00;2.80;66.60
67182;DHT22;54114;53.524;49.396;2023-03-11T04:29:27;2.90;66.50
67182;DHT22;54114;53.524;49.396;2023-03-11T04:31:54;3.00;66.30
67182;DHT22;54114;53.524;49.396;2023-03-11T04:34:20;3.10;66.30
67182;DHT22;54114;53.524;49.396;2023-03-11T04:36:51;3.30;66.20
67182;DHT22;54114;53.524;49.396;2023-03-11T04:39:18;3.50;65.50
67182;DHT22;54114;53.524;49.396;2023-03-11T04:41:45;3.80;65.40
67182;DHT22;54114;53.524;49.396;2023-03-11T04:44:12;4.00;64.50
67182;DHT22;54114;53.524;49.396;2023-03-11T04:46:38;4.30;64.30
67182;DHT22;54114;53.524;49.396;2023-03-11T04:49:05;4.60;63.20
67182;DHT22;54114;53.524;49.396;2023-03-11T04:51:33;4.80;62.30
67182;DHT22;54114;53.524;49.396;2023-03-11T04:53:59;5.00;62.20
67182;DHT22;54114;53.524;49.396;2023-03-11T04:56:26;5.10;61.50
67182;DHT22;54114;53.524;49.396;2023-03-11T04:58:53;5.30;61.80
67182;DHT22;54114;53.524;49.396;2023-03-11T05:01:19;5.40;60.80
67182;DHT22;54114;53.524;49.396;2023-03-11T05:03:46;5.40;61.10
67182;DHT22;54114;53.524;49.396;2023-03-11T05:06:12;5.40;60.50
67182;DHT22;54114;53.524;49.396;2023-03-11T05:08:40;5.60;59.70
67182;DHT22;54114;53.524;49.396;2023-03-11T05:11:07;5.70;58.60
67182;DHT22;54114;53.524;49.396;2023-03-11T05:13:34;5.80;58.30
67182;DHT22;54114;53.524;49.396;2023-03-11T05:16:01;6.00;58.10
67182;DHT22;54114;53.524;49.396;2023-03-11T05:18:27;6.00;57.80
67182;DHT22;54114;53.524;49.396;2023-03-11T05:20:55;6.20;57.90
67182;DHT22;54114;53.524;49.396;2023-03-11T05:23:22;6.60;57.50
67182;DHT22;54114;53.524;49.396;2023-03-11T05:25:49;6.90;56.50
67182;DHT22;54114;53.524;49.396;2023-03-11T05:28:15;7.10;55.80
67182;DHT22;54114;53.524;49.396;2023-03-11T05:30:42;7.30;55.10
67182;DHT22;54114;53.524;49.396;2023-03-11T05:33:09;7.40;54.50
67182;DHT22;54114;53.524;49.396;2023-03-11T05:35:36;7.40;54.00
67182;DHT22;54114;53.524;49.396;2023-03-11T05:38:03;7.40;53.70
67182;DHT22;54114;53.524;49.396;2023-03-11T05:40:29;7.60;53.50
67182;DHT22;54114;53.524;49.396;2023-03-11T05:42:56;7.70;53.00
67182;DHT22;54114;53.524;49.396;2023-03-11T05:45:23;8.00;52.90
67182;DHT22;54114;53.524;49.396;2023-03-11T05:47:51;8.30;52.20
67182;DHT22;54114;53.524;49.396;2023-03-11T05:50:18;8.60;51.70
67182;DHT22;54114;53.524;49.396;2023-03-11T05:52:44;8.90;50.60
67182;DHT22;54114;53.524;49.396;2023-03-11T05:55:11;9.10;49.80
67182;DHT22;54114;53.524;49.396;2023-03-11T05:57:38;9.00;48.90
67182;DHT22;54114;53.524;49.396;2023-03-11T06:00:06;8.90;49.20
67182;DHT22;54114;53.524;49.396;2023-03-11T06:02:38;8.90;49.10
67182;DHT22;54114;53.524;49.396;2023-03-11T06:05:07;9.00;48.90
67182;DHT22;54114;53.524;49.396;2023-03-11T06:07:34;9.10;48.60
67182;DHT22;54114;53.524;49.396;2023-03-11T06:10:02;9.10;48.20
67182;DHT22;54114;53.524;49.396;2023-03-11T06:12:29;9.20;48.00
67182;DHT22;54114;53.524;49.396;2023-03-11T06:14:56;9.00;48.00
67182;DHT22;54114;53.524;49.396;2023-03-11T06:17:23;8.90;48.00
67182;DHT22;54114;53.524;49.396;2023-03-11T06:19:49;8.80;47.90
67182;DHT22;54114;53.524;49.396;2023-03-11T06:22:16;8.80;47.80
67182;DHT22;54114;53.524;49.396;2023-03-11T06:24:42;8.90;47.70
67182;DHT22;54114;53.524;49.396;2023-03-11T06:27:09;9.00;47.40
67182;DHT22;54114;53.524;49.396;2023-03-11T06:29:36;9.10;47.10
67182;DHT22;54114;53.524;49.396;2023-03-11T06:32:03;9.20;47.40
67182;DHT22;54114;53.524;49.396;2023-03-11T06:34:29;9.20;46.30
67182;DHT22;54114;53.524;49.396;2023-03-11T06:36:56;9.30;46.50
67182;DHT22;54114;53.524;49.396;2023-03-11T06:39:25;9.60;45.70
67182;DHT22;54114;53.524;49.396;2023-03-11T06:41:51;9.80;45.40
67182;DHT22;54114;53.524;49.396;2023-03-11T06:44:18;10.00;45.00
67182;DHT22;54114;53.524;49.396;2023-03-11T06:46:45;10.20;44.50
67182;DHT22;54114;53.524;49.396;2023-03-11T06:49:11;10.50;44.60
67182;DHT22;54114;53.524;49.396;2023-03-11T06:51:38;11.00;44.20
67182;DHT22;54114;53.524;49.396;2023-03-11T06:54:06;11.60;42.70
67182;DHT22;54114;53.524;49.396;2023-03-11T06:56:32;12.00;41.70
67182;DHT22;54114;53.524;49.396;2023-03-11T06:58:59;12.20;41.30
67182;DHT22;54114;53.524;49.396;2023-03-11T07:01:25;12.30;40.90
67182;DHT22;54114;53.524;49.396;2023-03-11T07:03:53;12.30;40.70
67182;DHT22;54114;53.524;49.396;2023-03-11T07:06:22;12.60;40.80
67182;DHT22;54114;53.524;49.396;2023-03-11T07:08:51;13.00;40.10
67182;DHT22;54114;53.524;49.396;2023-03-11T07:11:21;13.40;39.40
67182;DHT22;54114;53.524;49.396;2023-03-11T07:13:50;13.60;38.40
67182;DHT22;54114;53.524;49.396;2023-03-11T07:16:20;13.70;38.30
67182;DHT22;54114;53.524;49.396;2023-03-11T07:18:49;13.80;38.10
67182;DHT22;54114;53.524;49.396;2023-03-11T07:21:19;14.10;37.70
67182;DHT22;54114;53.524;49.396;2023-03-11T07:23:47;14.50;37.40
67182;DHT22;54114;53.524;49.396;2023-03-11T07:26:17;14.80;37.10
67182;DHT22;54114;53.524;49.396;2023-03-11T07:28:43;15.10;36.70
67182;DHT22;54114;53.524;49.396;2023-03-11T07:31:13;15.40;36.20
67182;DHT22;54114;53.524;49.396;2023-03-11T07:33:43;15.60;36.50
67182;DHT22;54114;53.524;49.396;2023-03-11T07:36:12;16.00;35.70
67182;DHT22;54114;53.524;49.396;2023-03-11T07:38:44;16.40;35.00
67182;DHT22;54114;53.524;49.396;2023-03-11T07:41:12;16.70;34.50
67182;DHT22;54114;53.524;49.396;2023-03-11T07:43:40;16.90;34.20
67182;DHT22;54114;53.524;49.396;2023-03-11T07:46:15;17.30;33.40
67182;DHT22;54114;53.524;49.396;2023-03-11T07:48:44;17.50;32.50
67182;DHT22;54114;53.524;49.396;2023-03-11T07:51:16;17.50;32.40
67182;DHT22;54114;53.524;49.396;2023-03-11T07:53:45;17.50;32.00
67182;DHT22;54114;53.524;49.396;2023-03-11T07:56:14;17.60;32.20
67182;DHT22;54114;53.524;49.396;2023-03-11T07:58:41;17.60;31.70
67182;DHT22;54114;53.524;49.396;2023-03-11T08:01:12;17.50;31.40
67182;DHT22;54114;53.524;49.396;2023-03-11T08:03:47;17.20;31.30
67182;DHT22;54114;53.524;49.396;2023-03-11T08:06:29;16.90;31.30
67182;DHT22;54114;53.524;49.396;2023-03-11T08:08:59;16.90;31.40
67182;DHT22;54114;53.524;49.396;2023-03-11T08:11:26;16.80;31.10
67182;DHT22;54114;53.524;49.396;2023-03-11T08:13:53;16.70;31.00
67182;DHT22;54114;53.524;49.396;2023-03-11T08:16:23;16.70;31.00
67182;DHT22;54114;53.524;49.396;2023-03-11T08:18:51;16.70;31.20
67182;DHT22;54114;53.524;49.396;2023-03-11T08:21:21;16.90;31.10
67182;DHT22;54114;53.524;49.396;2023-03-11T08:23:50;16.80;30.90
67182;DHT22;54114;53.524;49.396;2023-03-11T08:26:19;16.70;31.10
67182;DHT22;54114;53.524;49.396;2023-03-11T08:28:47;16.80;31.10
67182;DHT22;54114;53.524;49.396;2023-03-11T08:31:15;16.80;30.80
67182;DHT22;54114;53.524;49.396;2023-03-11T08:33:45;16.90;30.60
67182;DHT22;54114;53.524;49.396;2023-03-11T08:36:15;16.80;30.70
67182;DHT22;54114;53.524;49.396;2023-03-11T08:38:42;16.70;30.60
67182;DHT22;54114;53.524;49.396;2023-03-11T08:41:08;16.90;30.60
67182;DHT22;54114;53.524;49.396;2023-03-11T08:43:35;16.90;30.40
67182;DHT22;54114;53.524;49.396;2023-03-11T08:46:03;16.80;30.40
67182;DHT22;54114;53.524;49.396;2023-03-11T08:48:36;16.90;30.00
67182;DHT22;54114;53.524;49.396;2023-03-11T08:51:11;16.60;29.90
67182;DHT22;54114;53.524;49.396;2023-03-11T08:53:38;16.30;29.90
67182;DHT22;54114;53.524;49.396;2023-03-11T08:56:05;16.40;30.00
67182;DHT22;54114;53.524;49.396;2023-03-11T08:58:33;16.40;30.00
67182;DHT22;54114;53.524;49.396;2023-03-11T09:01:00;16.40;30.20
67182;DHT22;54114;53.524;49.396;2023-03-11T09:03:29;16.20;30.20
67182;DHT22;54114;53.524;49.396;2023-03-11T09:06:02;16.20;30.50
67182;DHT22;54114;53.524;49.396;2023-03-11T09:08:30;16.20;30.70
67182;DHT22;54114;53.524;49.396;2023-03-11T09:10:57;16.10;30.40
67182;DHT22;54114;53.524;49.396;2023-03-11T09:13:24;16.00;30.60
67182;DHT22;54114;53.524;49.396;2023-03-11T09:15:51;15.70;30.60
67182;DHT22;54114;53.524;49.396;2023-03-11T09:18:18;15.40;30.80
67182;DHT22;54114;53.524;49.396;2023-03-11T09:20:45;15.20;30.70
67182;DHT22;54114;53.524;49.396;2023-03-11T09:23:15;15.10;30.30
67182;DHT22;54114;53.524;49.396;2023-03-11T09:25:42;15.40;29.90
67182;DHT22;54114;53.524;49.396;2023-03-11T09:28:09;15.60;30.00
67182;DHT22;54114;53.524;49.396;2023-03-11T09:30:35;15.70;29.80
67182;DHT22;54114;53.524;49.396;2023-03-11T09:33:02;15.70;29.70
67182;DHT22;54114;53.524;49.396;2023-03-11T09:35:29;15.90;30.00
67182;DHT22;54114;53.524;49.396;2023-03-11T09:37:55;16.20;30.00
67182;DHT22;54114;53.524;49.396;2023-03-11T09:40:25;16.50;29.80
67182;DHT22;54114;53.524;49.396;2023-03-11T09:46:35;16.40;29.60
67182;DHT22;54114;53.524;49.396;2023-03-11T09:51:56;17.10;29.20
67182;DHT22;54114;53.524;49.396;2023-03-11T09:54:44;17.50;28.90
67182;DHT22;54114;53.524;49.396;2023-03-11T09:57:18;17.80;28.60
67182;DHT22;54114;53.524;49.396;2023-03-11T09:59:49;18.10;28.50
67182;DHT22;54114;53.524;49.396;2023-03-11T10:02:21;18.00;28.50
67182;DHT22;54114;53.524;49.396;2023-03-11T10:05:02;17.90;28.80
67182;DHT22;54114;53.524;49.396;2023-03-11T10:07:40;17.90;28.80
67182;DHT22;54114;53.524;49.396;2023-03-11T10:10:13;17.80;28.80
67182;DHT22;54114;53.524;49.396;2023-03-11T10:13:00;17.40;28.90
67182;DHT22;54114;53.524;49.396;2023-03-11T10:22:27;16.80;29.50
67182;DHT22;54114;53.524;49.396;2023-03-11T10:28:19;16.30;29.20
67182;DHT22;54114;53.524;49.396;2023-03-11T10:36:57;16.00;29.90
67182;DHT22;54114;53.524;49.396;2023-03-11T10:39:32;16.40;29.70
67182;DHT22;54114;53.524;49.396;2023-03-11T10:42:01;16.70;30.00
67182;DHT22;54114;53.524;49.396;2023-03-11T10:44:38;17.00;29.20
67182;DHT22;54114;53.524;49.396;2023-03-11T10:47:11;16.90;28.90
67182;DHT22;54114;53.524;49.396;2023-03-11T10:49:41;16.60;29.30
67182;DHT22;54114;53.524;49.396;2023-03-11T10:52:08;16.50;29.70
67182;DHT22;54114;53.524;49.396;2023-03-11T10:54:43;16.80;29.30
67182;DHT22;54114;53.524;49.396;2023-03-11T10:57:34;17.40;29.00
67182;DHT22;54114;53.524;49.396;2023-03-11T11:00:06;17.60;28.60
67182;DHT22;54114;53.524;49.396;2023-03-11T11:02:53;17.70;28.30
67182;DHT22;54114;53.524;49.396;2023-03-11T11:05:28;17.60;28.50
67182;DHT22;54114;53.524;49.396;2023-03-11T11:08:15;17.50;28.50
67182;DHT22;54114;53.524;49.396;2023-03-11T11:10:53;17.60;28.40
67182;DHT22;54114;53.524;49.396;2023-03-11T11:13:24;17.50;28.30
67182;DHT22;54114;53.524;49.396;2023-03-11T11:18:49;16.80;28.50
67182;DHT22;54114;53.524;49.396;2023-03-11T11:21:41;16.60;28.40
67182;DHT22;54114;53.524;49.396;2023-03-11T11:27:14;15.80;29.30
67182;DHT22;54114;53.524;49.396;2023-03-11T11:29:41;15.50;29.40
67182;DHT22;54114;53.524;49.396;2023-03-11T11:32:16;15.40;29.70
67182;DHT22;54114;53.524;49.396;2023-03-11T11:37:33;15.00;30.00
67182;DHT22;54114;53.524;49.396;2023-03-11T11:40:16;14.70;30.20
67182;DHT22;54114;53.524;49.396;2023-03-11T11:43:00;14.70;30.80
67182;DHT22;54114;53.524;49.396;2023-03-11T11:45:39;14.70;31.00
67182;DHT22;54114;53.524;49.396;2023-03-11T11:48:13;14.90;31.20
67182;DHT22;54114;53.524;49.396;2023-03-11T11:50:47;15.00;31.20
67182;DHT22;54114;53.524;49.396;2023-03-11T11:53:40;15.10;30.60
67182;DHT22;54114;53.524;49.396;2023-03-11T11:56:28;15.20;30.20
67182;DHT22;54114;53.524;49.396;2023-03-11T11:58:55;15.20;30.60
67182;DHT22;54114;53.524;49.396;2023-03-11T12:01:39;15.20;31.00
67182;DHT22;54114;53.524;49.396;2023-03-11T12:10:40;14.90;30.00
67182;DHT22;54114;53.524;49.396;2023-03-11T12:13:52;14.70;30.10
67182;DHT22;54114;53.524;49.396;2023-03-11T12:24:31;13.80;31.70
67182;DHT22;54114;53.524;49.396;2023-03-11T12:27:50;13.60;31.70
67182;DHT22;54114;53.524;49.396;2023-03-11T12:30:45;13.30;32.30
67182;DHT22;54114;53.524;49.396;2023-03-11T12:35:56;13.20;32.50
67182;DHT22;54114;53.524;49.396;2023-03-11T12:38:34;13.00;32.60
67182;DHT22;54114;53.524;49.396;2023-03-11T12:41:25;12.90;32.90
67182;DHT22;54114;53.524;49.396;2023-03-11T12:54:42;12.00;34.30
67182;DHT22;54114;53.524;49.396;2023-03-11T13:07:59;10.90;35.90
67182;DHT22;54114;53.524;49.396;2023-03-11T13:10:37;10.70;36.40
67182;DHT22;54114;53.524;49.396;2023-03-11T13:13:41;10.40;36.70
67182;DHT22;54114;53.524;49.396;2023-03-11T13:18:42;10.10;37.30
67182;DHT22;54114;53.524;49.396;2023-03-11T13:30:02;10.50;37.70
67182;DHT22;54114;53.524;49.396;2023-03-11T13:41:42;11.00;37.20
67182;DHT22;54114;53.524;49.396;2023-03-11T13:44:19;11.00;37.20
67182;DHT22;54114;53.524;49.396;2023-03-11T13:47:12;11.00;37.10
67182;DHT22;54114;53.524;49.396;2023-03-11T13:55:19;10.60;37.40
67182;DHT22;54114;53.524;49.396;2023-03-11T13:57:55;10.50;37.80
67182;DHT22;54114;53.524;49.396;2023-03-11T14:00:27;10.30;37.90
67182;DHT22;54114;53.524;49.396;2023-03-11T14:03:01;10.00;38.30
67182;DHT22;54114;53.524;49.396;2023-03-11T14:05:33;9.70;38.60
67182;DHT22;54114;53.524;49.396;2023-03-11T14:08:26;9.50;39.20
67182;DHT22;54114;53.524;49.396;2023-03-11T14:11:15;9.20;39.70
67182;DHT22;54114;53.524;49.396;2023-03-11T14:13:49;8.90;40.10
67182;DHT22;54114;53.524;49.396;2023-03-11T14:16:23;8.70;40.50
67182;DHT22;54114;53.524;49.396;2023-03-11T14:19:13;8.50;40.70
67182;DHT22;54114;53.524;49.396;2023-03-11T14:21:48;8.30;41.20
67182;DHT22;54114;53.524;49.396;2023-03-11T14:24:29;8.10;41.40
67182;DHT22;54114;53.524;49.396;2023-03-11T14:26:58;8.00;42.00
67182;DHT22;54114;53.524;49.396;2023-03-11T14:29:32;7.80;42.50
67182;DHT22;54114;53.524;49.396;2023-03-11T14:32:26;7.60;42.70
67182;DHT22;54114;53.524;49.396;2023-03-11T14:34:55;7.40;42.80
67182;DHT22;54114;53.524;49.396;2023-03-11T14:37:37;7.20;43.00
67182;DHT22;54114;53.524;49.396;2023-03-11T14:40:31;7.00;43.30
67182;DHT22;54114;53.524;49.396;2023-03-11T14:43:03;6.80;43.70
67182;DHT22;54114;53.524;49.396;2023-03-11T14:45:33;6.70;43.80
67182;DHT22;54114;53.524;49.396;2023-03-11T14:50:43;6.30;44.20
67182;DHT22;54114;53.524;49.396;2023-03-11T14:53:18;6.20;44.30
67182;DHT22;54114;53.524;49.396;2023-03-11T14:55:56;6.10;44.50
67182;DHT22;54114;53.524;49.396;2023-03-11T14:58:31;5.90;44.80
67182;DHT22;54114;53.524;49.396;2023-03-11T15:01:08;5.80;45.30
67182;DHT22;54114;53.524;49.396;2023-03-11T15:06:31;5.50;46.00
67182;DHT22;54114;53.524;49.396;2023-03-11T15:09:11;5.30;46.00
67182;DHT22;54114;53.524;49.396;2023-03-11T15:12:00;5.20;46.10
67182;DHT22;54114;53.524;49.396;2023-03-11T15:14:48;5.00;46.50
67182;DHT22;54114;53.524;49.396;2023-03-11T15:17:22;4.80;46.90
67182;DHT22;54114;53.524;49.396;2023-03-11T15:19:57;4.70;47.00
67182;DHT22;54114;53.524;49.396;2023-03-11T15:22:38;4.60;47.30
67182;DHT22;54114;53.524;49.396;2023-03-11T15:25:17;4.50;47.50
67182;DHT22;54114;53.524;49.396;2023-03-11T15:27:45;4.30;47.70
67182;DHT22;54114;53.524;49.396;2023-03-11T15:30:24;4.20;47.90
67182;DHT22;54114;53.524;49.396;2023-03-11T15:32:54;4.10;48.20
67182;DHT22;54114;53.524;49.396;2023-03-11T15:35:23;4.00;48.40
67182;DHT22;54114;53.524;49.396;2023-03-11T15:41:09;3.80;49.00
67182;DHT22;54114;53.524;49.396;2023-03-11T15:43:48;3.70;49.10
67182;DHT22;54114;53.524;49.396;2023-03-11T15:46:15;3.70;49.60
67182;DHT22;54114;53.524;49.396;2023-03-11T15:48:42;3.60;49.40
67182;DHT22;54114;53.524;49.396;2023-03-11T15:51:19;3.60;49.70
67182;DHT22;54114;53.524;49.396;2023-03-11T15:53:46;3.50;49.60
67182;DHT22;54114;53.524;49.396;2023-03-11T15:56:17;3.50;49.60
67182;DHT22;54114;53.524;49.396;2023-03-11T15:58:47;3.40;49.60
67182;DHT22;54114;53.524;49.396;2023-03-11T16:01:13;3.40;49.60
67182;DHT22;54114;53.524;49.396;2023-03-11T16:03:40;3.40;49.80
67182;DHT22;54114;53.524;49.396;2023-03-11T16:06:07;3.30;50.10
67182;DHT22;54114;53.524;49.396;2023-03-11T16:08:33;3.30;50.20
67182;DHT22;54114;53.524;49.396;2023-03-11T16:11:00;3.30;50.30
67182;DHT22;54114;53.524;49.396;2023-03-11T16:13:27;3.30;50.40
67182;DHT22;54114;53.524;49.396;2023-03-11T16:15:54;3.20;50.80
67182;DHT22;54114;53.524;49.396;2023-03-11T16:18:20;3.20;50.80
67182;DHT22;54114;53.524;49.396;2023-03-11T16:20:49;3.20;50.80
67182;DHT22;54114;53.524;49.396;2023-03-11T16:23:35;3.20;51.00
67182;DHT22;54114;53.524;49.396;2023-03-11T16:26:04;3.10;51.00
67182;DHT22;54114;53.524;49.396;2023-03-11T16:28:31;3.10;51.10
67182;DHT22;54114;53.524;49.396;2023-03-11T16:30:57;3.10;51.30
67182;DHT22;54114;53.524;49.396;2023-03-11T16:33:24;3.00;51.30
67182;DHT22;54114;53.524;49.396;2023-03-11T16:35:51;3.00;51.30
67182;DHT22;54114;53.524;49.396;2023-03-11T16:38:18;3.00;51.60
67182;DHT22;54114;53.524;49.396;2023-03-11T16:40:59;3.00;51.60
67182;DHT22;54114;53.524;49.396;2023-03-11T16:43:28;2.90;51.60
67182;DHT22;54114;53.524;49.396;2023-03-11T16:45:55;2.90;51.90
67182;DHT22;54114;53.524;49.396;2023-03-11T16:48:23;2.90;51.90
67182;DHT22;54114;53.524;49.396;2023-03-11T16:50:49;2.80;51.90
67182;DHT22;54114;53.524;49.396;2023-03-11T16:53:16;2.80;52.00
67182;DHT22;54114;53.524;49.396;2023-03-11T16:55:46;2.80;52.00
67182;DHT22;54114;53.524;49.396;2023-03-11T16:58:14;2.80;52.40
67182;DHT22;54114;53.524;49.396;2023-03-11T17:00:40;2.80;52.30
67182;DHT22;54114;53.524;49.396;2023-03-11T17:03:14;2.70;52.40
67182;DHT22;54114;53.524;49.396;2023-03-11T17:05:41;2.70;52.40
67182;DHT22;54114;53.524;49.396;2023-03-11T17:08:09;2.70;52.50
67182;DHT22;54114;53.524;49.396;2023-03-11T17:10:37;2.60;52.40
67182;DHT22;54114;53.524;49.396;2023-03-11T17:13:06;2.60;52.40
67182;DHT22;54114;53.524;49.396;2023-03-11T17:15:33;2.60;52.40
67182;DHT22;54114;53.524;49.396;2023-03-11T17:18:01;2.60;52.50
67182;DHT22;54114;53.524;49.396;2023-03-11T17:20:28;2.60;52.50
67182;DHT22;54114;53.524;49.396;2023-03-11T17:22:55;2.60;52.40
67182;DHT22;54114;53.524;49.396;2023-03-11T17:25:21;2.50;52.50
67182;DHT22;54114;53.524;49.396;2023-03-11T17:27:48;2.50;52.50
67182;DHT22;54114;53.524;49.396;2023-03-11T17:30:15;2.50;52.50
67182;DHT22;54114;53.524;49.396;2023-03-11T17:32:42;2.50;52.60
67182;DHT22;54114;53.524;49.396;2023-03-11T17:35:09;2.50;52.90
67182;DHT22;54114;53.524;49.396;2023-03-11T17:37:35;2.50;53.30
67182;DHT22;54114;53.524;49.396;2023-03-11T17:40:02;2.40;53.20
67182;DHT22;54114;53.524;49.396;2023-03-11T17:42:29;2.40;53.30